createdAt,value
2022-10-07T00:00:47.803Z,11.90
2022-10-07T00:03:14.821Z,11.80
2022-10-07T00:05:41.816Z,11.90
2022-10-07T00:08:08.867Z,11.90
2022-10-07T00:10:43.261Z,11.90
2022-10-07T00:13:12.230Z,11.90
2022-10-07T00:15:39.509Z,11.90
2022-10-07T00:18:06.547Z,11.90
2022-10-07T00:20:42.651Z,11.90
2022-10-07T00:23:09.548Z,11.90
2022-10-07T00:25:37.831Z,11.90
2022-10-07T00:28:05.694Z,11.90
2022-10-07T00:30:32.915Z,12.00
2022-10-07T00:33:00.033Z,12.00
2022-10-07T00:35:26.869Z,12.10
2022-10-07T00:37:53.941Z,12.10
2022-10-07T00:40:20.798Z,12.10
2022-10-07T00:42:47.663Z,12.10
2022-10-07T00:45:17.835Z,12.10
2022-10-07T00:47:47.605Z,12.00
2022-10-07T00:50:21.404Z,12.00
2022-10-07T00:52:53.582Z,12.00
2022-10-07T00:55:24.548Z,12.00
2022-10-07T00:57:53.647Z,12.00
2022-10-07T01:00:23.558Z,11.90
2022-10-07T01:02:51.735Z,11.90
2022-10-07T01:05:19.905Z,11.90
2022-10-07T01:07:48.846Z,11.90
2022-10-07T01:10:20.082Z,11.90
2022-10-07T01:13:00.853Z,11.90
2022-10-07T01:15:43.605Z,11.90
2022-10-07T01:18:30.940Z,11.90
2022-10-07T01:21:09.663Z,11.90
2022-10-07T01:24:08.878Z,11.90
2022-10-07T01:26:51.294Z,11.90
2022-10-07T01:29:39.537Z,11.90
2022-10-07T01:32:09.799Z,11.90
2022-10-07T01:34:38.158Z,11.90
2022-10-07T01:37:08.657Z,12.00
2022-10-07T01:39:41.014Z,12.00
2022-10-07T01:42:07.998Z,12.00
2022-10-07T01:44:36.214Z,12.10
2022-10-07T01:47:03.354Z,12.10
2022-10-07T01:49:30.269Z,12.10
2022-10-07T01:52:09.114Z,12.10
2022-10-07T01:54:49.603Z,12.10
2022-10-07T01:57:35.076Z,12.10
2022-10-07T02:00:12.028Z,12.00
2022-10-07T02:03:18.214Z,12.00
2022-10-07T02:06:01.896Z,12.00
2022-10-07T02:08:37.692Z,11.90
2022-10-07T02:11:21.970Z,11.90
2022-10-07T02:14:04.049Z,11.90
2022-10-07T02:16:42.640Z,11.90
2022-10-07T02:19:36.874Z,11.90
2022-10-07T02:22:05.726Z,11.90
2022-10-07T02:24:37.914Z,11.90
2022-10-07T02:27:12.709Z,11.90
2022-10-07T02:29:42.031Z,11.90
2022-10-07T02:32:15.457Z,11.90
2022-10-07T02:34:46.114Z,11.90
2022-10-07T02:37:36.041Z,11.90
2022-10-07T02:40:07.151Z,11.90
2022-10-07T02:43:17.119Z,11.90
2022-10-07T02:45:58.094Z,11.90
2022-10-07T02:48:40.138Z,11.90
2022-10-07T02:51:10.932Z,11.90
2022-10-07T02:53:39.164Z,12.00
2022-10-07T02:56:07.291Z,12.00
2022-10-07T02:58:35.904Z,11.90
2022-10-07T03:01:04.894Z,12.00
2022-10-07T03:03:31.901Z,11.90
2022-10-07T03:05:59.365Z,11.90
2022-10-07T03:08:26.994Z,11.90
2022-10-07T03:10:53.798Z,11.90
2022-10-07T03:13:20.631Z,11.90
2022-10-07T03:15:47.501Z,11.90
2022-10-07T03:18:27.398Z,11.80
2022-10-07T03:20:56.037Z,11.80
2022-10-07T03:23:27.028Z,11.90
2022-10-07T03:25:55.811Z,11.90
2022-10-07T03:28:24.129Z,11.90
2022-10-07T03:30:52.811Z,12.00
2022-10-07T03:33:25.792Z,12.00
2022-10-07T03:35:52.643Z,12.10
2022-10-07T03:38:19.427Z,12.10
2022-10-07T03:40:46.279Z,12.10
2022-10-07T03:43:13.114Z,12.10
2022-10-07T03:45:50.034Z,12.10
2022-10-07T03:48:17.342Z,12.10
2022-10-07T03:50:51.925Z,12.10
2022-10-07T03:53:20.006Z,12.10
2022-10-07T03:55:46.854Z,12.00
2022-10-07T03:58:13.711Z,12.00
2022-10-07T04:00:41.360Z,11.90
2022-10-07T04:03:09.296Z,12.00
2022-10-07T04:05:37.569Z,12.00
2022-10-07T04:08:05.329Z,12.00
2022-10-07T04:10:32.789Z,12.00
2022-10-07T04:12:59.706Z,12.00
2022-10-07T04:15:26.731Z,11.90
2022-10-07T04:18:00.388Z,11.90
2022-10-07T04:20:27.262Z,12.00
2022-10-07T04:22:54.123Z,12.00
2022-10-07T04:25:37.744Z,12.00
2022-10-07T04:28:07.191Z,12.10
2022-10-07T04:30:39.554Z,12.10
2022-10-07T04:33:07.784Z,12.00
2022-10-07T04:35:38.203Z,12.00
2022-10-07T04:38:07.967Z,12.00
2022-10-07T04:40:40.131Z,12.00
2022-10-07T04:43:19.463Z,12.00
2022-10-07T04:45:47.930Z,11.90
2022-10-07T04:48:18.058Z,11.90
2022-10-07T04:50:45.532Z,11.90
2022-10-07T04:53:14.509Z,11.90
2022-10-07T04:55:43.903Z,11.90
2022-10-07T04:58:10.983Z,12.00
2022-10-07T05:00:43.254Z,12.10
2022-10-07T05:03:11.017Z,12.10
2022-10-07T05:05:41.601Z,12.10
2022-10-07T05:08:08.956Z,12.20
2022-10-07T05:10:37.267Z,12.20
2022-10-07T05:13:05.315Z,12.20
2022-10-07T05:15:32.442Z,12.20
2022-10-07T05:17:59.377Z,12.30
2022-10-07T05:20:26.748Z,12.30
2022-10-07T05:22:53.769Z,12.30
2022-10-07T05:25:20.938Z,12.30
2022-10-07T05:27:54.037Z,12.30
2022-10-07T05:30:21.261Z,12.40
2022-10-07T05:32:48.243Z,12.40
2022-10-07T05:35:15.450Z,12.40
2022-10-07T05:37:44.499Z,12.40
2022-10-07T05:40:13.286Z,12.40
2022-10-07T05:42:40.088Z,12.50
2022-10-07T05:45:07.523Z,12.50
2022-10-07T05:47:34.468Z,12.50
2022-10-07T05:50:01.389Z,12.50
2022-10-07T05:52:30.353Z,12.50
2022-10-07T05:54:57.893Z,12.60
2022-10-07T05:57:24.861Z,12.60
2022-10-07T05:59:51.839Z,12.70
2022-10-07T06:02:19.101Z,12.70
2022-10-07T06:04:49.452Z,12.70
2022-10-07T06:07:21.333Z,12.80
2022-10-07T06:10:08.003Z,12.80
2022-10-07T06:12:53.261Z,12.80
2022-10-07T06:15:20.075Z,12.80
2022-10-07T06:17:47.249Z,12.80
2022-10-07T06:20:15.238Z,12.80
2022-10-07T06:22:44.244Z,12.80
2022-10-07T06:25:11.110Z,12.80
2022-10-07T06:27:37.962Z,12.90
2022-10-07T06:30:05.457Z,13.10
2022-10-07T06:32:32.814Z,13.20
2022-10-07T06:34:59.661Z,13.20
2022-10-07T06:37:26.519Z,13.20
2022-10-07T06:39:57.384Z,13.30
2022-10-07T06:42:26.298Z,13.40
2022-10-07T06:44:53.993Z,13.50
2022-10-07T06:47:21.591Z,13.50
2022-10-07T06:49:48.659Z,13.60
2022-10-07T06:52:15.700Z,13.60
2022-10-07T06:54:42.683Z,13.70
2022-10-07T06:57:33.013Z,13.80
2022-10-07T06:59:56.903Z,13.90
2022-10-07T07:02:25.661Z,13.80
2022-10-07T07:04:57.248Z,13.80
2022-10-07T07:07:24.982Z,13.70
2022-10-07T07:09:52.051Z,13.70
2022-10-07T07:12:18.974Z,13.70
2022-10-07T07:14:46.036Z,13.80
2022-10-07T07:17:12.825Z,14.00
2022-10-07T07:19:39.667Z,14.10
2022-10-07T07:22:07.576Z,14.10
2022-10-07T07:24:34.487Z,14.10
2022-10-07T07:27:01.379Z,14.20
2022-10-07T07:29:28.485Z,14.30
2022-10-07T07:31:55.318Z,14.40
2022-10-07T07:34:22.245Z,14.40
2022-10-07T07:36:53.551Z,14.40
2022-10-07T07:39:21.029Z,14.40
2022-10-07T07:41:47.973Z,14.30
2022-10-07T07:44:17.723Z,14.30
2022-10-07T07:46:48.495Z,14.30
2022-10-07T07:49:16.225Z,14.30
2022-10-07T07:51:43.712Z,14.40
2022-10-07T07:54:12.234Z,14.40
2022-10-07T07:56:39.526Z,14.50
2022-10-07T07:59:06.539Z,14.60
2022-10-07T08:01:35.358Z,14.70
2022-10-07T08:04:04.165Z,14.70
2022-10-07T08:06:31.585Z,14.70
2022-10-07T08:08:59.539Z,14.80
2022-10-07T08:11:27.942Z,14.70
2022-10-07T08:13:56.271Z,14.70
2022-10-07T08:16:25.009Z,14.70
2022-10-07T08:18:56.089Z,14.80
2022-10-07T08:21:28.349Z,14.80
2022-10-07T08:23:57.534Z,14.80
2022-10-07T08:26:25.800Z,14.80
2022-10-07T08:28:52.683Z,15.00
2022-10-07T08:31:19.881Z,15.00
2022-10-07T08:33:48.622Z,15.10
2022-10-07T08:36:21.801Z,15.20
2022-10-07T08:38:49.654Z,15.30
2022-10-07T08:41:34.315Z,15.30
2022-10-07T08:44:29.596Z,15.30
2022-10-07T08:47:24.582Z,15.30
2022-10-07T08:50:20.093Z,15.30
2022-10-07T08:52:51.535Z,15.30
2022-10-07T08:55:24.423Z,15.40
2022-10-07T08:58:16.010Z,15.50
2022-10-07T09:00:52.037Z,15.30
2022-10-07T09:03:35.888Z,15.20
2022-10-07T09:06:16.246Z,15.30
2022-10-07T09:08:47.471Z,15.30
2022-10-07T09:11:25.626Z,15.30
2022-10-07T09:14:18.001Z,15.30
2022-10-07T09:16:47.295Z,15.30
2022-10-07T09:19:22.632Z,15.30
2022-10-07T09:21:51.238Z,15.30
2022-10-07T09:24:23.065Z,15.40
2022-10-07T09:26:55.326Z,15.30
2022-10-07T09:29:28.312Z,15.30
2022-10-07T09:31:56.502Z,15.40
2022-10-07T09:34:27.134Z,15.50
2022-10-07T09:37:14.264Z,15.70
2022-10-07T09:39:43.049Z,15.60
2022-10-07T09:42:26.410Z,15.50
2022-10-07T09:44:55.745Z,15.60
2022-10-07T09:47:29.035Z,15.60
2022-10-07T09:50:00.096Z,15.50
2022-10-07T09:52:29.840Z,15.60
2022-10-07T09:55:18.783Z,15.40
2022-10-07T09:58:00.433Z,15.40
2022-10-07T10:00:27.286Z,15.30
2022-10-07T10:03:06.515Z,15.40
2022-10-07T10:05:50.784Z,15.30
2022-10-07T10:08:17.632Z,15.30
2022-10-07T10:10:53.948Z,15.40
2022-10-07T10:13:35.922Z,15.60
2022-10-07T10:16:05.672Z,15.60
2022-10-07T10:18:53.011Z,15.70
2022-10-07T10:21:30.282Z,15.70
2022-10-07T10:24:06.037Z,15.90
2022-10-07T10:27:06.905Z,15.80
2022-10-07T10:29:41.001Z,15.80
2022-10-07T10:32:26.021Z,15.70
2022-10-07T10:35:07.583Z,15.80
2022-10-07T10:37:40.198Z,15.90
2022-10-07T10:40:28.013Z,15.90
2022-10-07T10:43:25.035Z,15.80
2022-10-07T10:46:22.522Z,15.90
2022-10-07T10:49:10.704Z,16.10
2022-10-07T10:51:43.833Z,16.10
2022-10-07T10:54:48.779Z,15.90
2022-10-07T10:57:34.434Z,15.80
2022-10-07T11:00:11.294Z,15.80
2022-10-07T11:02:38.347Z,15.90
2022-10-07T11:05:22.063Z,16.10
2022-10-07T11:08:11.603Z,16.20
2022-10-07T11:10:46.915Z,16.20
2022-10-07T11:13:15.042Z,16.30
2022-10-07T11:15:46.444Z,16.10
2022-10-07T11:18:18.480Z,16.20
2022-10-07T11:20:48.385Z,16.10
2022-10-07T11:23:31.104Z,16.20
2022-10-07T11:26:06.488Z,16.30
2022-10-07T11:28:37.039Z,16.50
2022-10-07T11:31:11.970Z,16.60
2022-10-07T11:33:53.071Z,16.70
2022-10-07T11:36:32.403Z,16.80
2022-10-07T11:38:59.211Z,16.80
2022-10-07T11:41:34.540Z,16.70
2022-10-07T11:44:09.836Z,16.60
2022-10-07T11:46:41.142Z,16.50
2022-10-07T11:49:40.009Z,16.50
2022-10-07T11:52:24.513Z,16.40
2022-10-07T11:54:59.569Z,16.60
2022-10-07T11:57:31.405Z,16.80
2022-10-07T12:00:02.205Z,16.80
2022-10-07T12:02:29.317Z,16.90
2022-10-07T12:04:57.827Z,17.00
2022-10-07T12:07:40.101Z,16.90
2022-10-07T12:10:07.482Z,17.10
2022-10-07T12:12:46.782Z,17.00
2022-10-07T12:15:26.677Z,16.90
2022-10-07T12:18:05.888Z,16.80
2022-10-07T12:20:45.575Z,16.60
2022-10-07T12:23:28.461Z,16.60
2022-10-07T12:25:55.528Z,16.50
2022-10-07T12:28:37.413Z,16.40
2022-10-07T12:31:32.952Z,16.40
2022-10-07T12:34:10.397Z,16.40
2022-10-07T12:36:43.115Z,16.40
2022-10-07T12:39:10.013Z,16.40
2022-10-07T12:41:40.033Z,16.40
2022-10-07T12:44:40.786Z,16.40
2022-10-07T12:47:12.850Z,16.40
2022-10-07T12:49:50.674Z,16.30
2022-10-07T12:52:36.245Z,16.40
2022-10-07T12:55:11.030Z,16.40
2022-10-07T12:57:41.794Z,16.40
2022-10-07T13:00:20.254Z,16.40
2022-10-07T13:03:23.251Z,16.30
2022-10-07T13:06:34.233Z,16.30
2022-10-07T13:09:25.287Z,16.30
2022-10-07T13:12:19.202Z,16.20
2022-10-07T13:15:10.910Z,16.10
2022-10-07T13:17:40.785Z,16.10
2022-10-07T13:20:24.884Z,16.00
2022-10-07T13:22:51.962Z,16.00
2022-10-07T13:25:21.026Z,16.00
2022-10-07T13:27:56.899Z,15.90
2022-10-07T13:30:41.894Z,15.90
2022-10-07T13:33:28.483Z,15.90
2022-10-07T13:36:10.956Z,16.00
2022-10-07T13:38:37.842Z,15.90
2022-10-07T13:41:14.020Z,15.90
2022-10-07T13:43:43.844Z,15.90
2022-10-07T13:46:12.721Z,15.90
2022-10-07T13:48:45.622Z,15.90
2022-10-07T13:51:36.811Z,15.90
2022-10-07T13:54:06.203Z,15.90
2022-10-07T13:56:41.478Z,16.00
2022-10-07T13:59:18.627Z,16.10
2022-10-07T14:01:51.939Z,16.20
2022-10-07T14:04:25.147Z,16.20
2022-10-07T14:07:00.372Z,16.10
2022-10-07T14:09:37.771Z,16.00
2022-10-07T14:12:12.377Z,15.90
2022-10-07T14:14:56.080Z,15.80
2022-10-07T14:17:32.935Z,15.90
2022-10-07T14:20:05.545Z,15.90
2022-10-07T14:22:41.266Z,15.90
2022-10-07T14:25:19.104Z,15.80
2022-10-07T14:27:45.887Z,15.90
2022-10-07T14:30:28.482Z,15.80
2022-10-07T14:33:31.276Z,15.70
2022-10-07T14:36:10.204Z,15.70
2022-10-07T14:38:37.089Z,15.70
2022-10-07T14:41:04.080Z,15.60
2022-10-07T14:43:32.527Z,15.60
2022-10-07T14:46:07.990Z,15.60
2022-10-07T14:48:35.053Z,15.60
2022-10-07T14:51:02.212Z,15.50
2022-10-07T14:53:29.273Z,15.50
2022-10-07T14:55:57.146Z,15.40
2022-10-07T14:58:24.721Z,15.40
2022-10-07T15:00:52.183Z,15.40
2022-10-07T15:03:19.274Z,15.40
2022-10-07T15:05:48.836Z,15.30
2022-10-07T15:08:15.890Z,15.30
2022-10-07T15:10:43.479Z,15.20
2022-10-07T15:13:13.383Z,15.20
2022-10-07T15:15:47.026Z,15.10
2022-10-07T15:18:14.188Z,15.10
2022-10-07T15:20:41.388Z,15.00
2022-10-07T15:23:09.132Z,15.00
2022-10-07T15:25:40.119Z,15.00
2022-10-07T15:28:07.013Z,14.90
2022-10-07T15:30:39.116Z,14.90
2022-10-07T15:33:06.336Z,14.90
2022-10-07T15:35:34.068Z,14.80
2022-10-07T15:38:00.986Z,14.70
2022-10-07T15:40:27.833Z,14.70
2022-10-07T15:42:56.118Z,14.70
2022-10-07T15:45:22.989Z,14.60
2022-10-07T15:47:56.815Z,14.60
2022-10-07T15:50:27.524Z,14.60
2022-10-07T15:52:54.814Z,14.50
2022-10-07T15:55:21.707Z,14.40
2022-10-07T15:57:48.524Z,14.40
2022-10-07T16:00:16.955Z,14.30
2022-10-07T16:02:45.266Z,14.30
2022-10-07T16:05:12.876Z,14.30
2022-10-07T16:07:39.692Z,14.20
2022-10-07T16:10:12.043Z,14.20
2022-10-07T16:12:39.717Z,14.10
2022-10-07T16:15:07.080Z,14.10
2022-10-07T16:17:33.912Z,14.00
2022-10-07T16:20:00.796Z,14.00
2022-10-07T16:22:27.603Z,14.00
2022-10-07T16:24:55.651Z,13.90
2022-10-07T16:27:42.516Z,13.90
2022-10-07T16:30:28.973Z,13.90
2022-10-07T16:32:55.755Z,13.80
2022-10-07T16:35:22.573Z,13.80
2022-10-07T16:37:52.512Z,13.70
2022-10-07T16:40:19.589Z,13.70
2022-10-07T16:42:46.594Z,13.70
2022-10-07T16:45:13.502Z,13.60
2022-10-07T16:47:40.383Z,13.60
2022-10-07T16:50:11.062Z,13.60
2022-10-07T16:52:38.089Z,13.60
2022-10-07T16:55:05.245Z,13.50
2022-10-07T16:57:32.087Z,13.50
2022-10-07T16:59:59.618Z,13.50
2022-10-07T17:02:28.430Z,13.40
2022-10-07T17:04:55.275Z,13.40
2022-10-07T17:07:22.169Z,13.40
2022-10-07T17:09:49.161Z,13.40
2022-10-07T17:12:16.366Z,13.30
2022-10-07T17:14:43.378Z,13.30
2022-10-07T17:17:10.295Z,13.30
2022-10-07T17:19:37.184Z,13.20
2022-10-07T17:22:06.734Z,13.20
2022-10-07T17:24:33.866Z,13.10
2022-10-07T17:27:00.709Z,13.10
2022-10-07T17:29:29.532Z,13.10
2022-10-07T17:31:56.537Z,13.10
2022-10-07T17:34:23.436Z,13.00
2022-10-07T17:36:51.023Z,13.00
2022-10-07T17:39:19.307Z,12.90
2022-10-07T17:41:46.485Z,12.90
2022-10-07T17:44:13.769Z,12.90
2022-10-07T17:46:41.223Z,12.80
2022-10-07T17:49:10.322Z,12.80
2022-10-07T17:51:37.619Z,12.80
2022-10-07T17:54:06.137Z,12.70
2022-10-07T17:56:34.677Z,12.70
2022-10-07T17:59:02.238Z,12.70
2022-10-07T18:01:31.925Z,12.60
2022-10-07T18:04:01.020Z,12.60
2022-10-07T18:06:30.755Z,12.60
2022-10-07T18:09:03.289Z,12.60
2022-10-07T18:11:49.444Z,12.50
2022-10-07T18:14:42.606Z,12.50
2022-10-07T18:17:10.803Z,12.50
2022-10-07T18:19:39.744Z,12.40
2022-10-07T18:22:06.764Z,12.40
2022-10-07T18:24:33.657Z,12.40
2022-10-07T18:27:01.178Z,12.40
2022-10-07T18:29:29.819Z,12.40
2022-10-07T18:31:56.869Z,12.40
2022-10-07T18:34:24.287Z,12.30
2022-10-07T18:36:55.941Z,12.30
2022-10-07T18:39:24.015Z,12.30
2022-10-07T18:41:51.013Z,12.20
2022-10-07T18:44:17.843Z,12.10
2022-10-07T18:46:44.902Z,12.10
2022-10-07T18:49:13.916Z,12.10
2022-10-07T18:51:41.384Z,12.10
2022-10-07T18:54:08.524Z,12.10
2022-10-07T18:56:39.989Z,12.00
2022-10-07T18:59:09.618Z,12.00
2022-10-07T19:01:37.559Z,12.00
2022-10-07T19:04:05.527Z,12.00
2022-10-07T19:06:37.929Z,12.00
2022-10-07T19:09:08.915Z,12.00
2022-10-07T19:11:35.757Z,11.90
2022-10-07T19:14:02.620Z,11.80
2022-10-07T19:16:40.538Z,11.80
2022-10-07T19:19:13.946Z,11.80
2022-10-07T19:21:41.012Z,11.80
2022-10-07T19:24:08.127Z,11.70
2022-10-07T19:26:42.323Z,11.70
2022-10-07T19:29:10.769Z,11.60
2022-10-07T19:31:42.499Z,11.70
2022-10-07T19:34:18.744Z,11.70
2022-10-07T19:36:47.233Z,11.70
2022-10-07T19:39:17.337Z,11.60
2022-10-07T19:41:45.139Z,11.60
2022-10-07T19:44:12.912Z,11.50
2022-10-07T19:46:39.938Z,11.50
2022-10-07T19:49:07.406Z,11.50
2022-10-07T19:51:35.273Z,11.50
2022-10-07T19:54:05.758Z,11.50
2022-10-07T19:56:35.643Z,11.50
2022-10-07T19:59:08.330Z,11.40
2022-10-07T20:01:37.765Z,11.40
2022-10-07T20:04:16.439Z,11.30
2022-10-07T20:06:43.850Z,11.20
2022-10-07T20:09:16.167Z,11.20
2022-10-07T20:11:43.224Z,11.10
2022-10-07T20:14:10.374Z,11.00
2022-10-07T20:16:38.268Z,11.10
2022-10-07T20:19:07.647Z,11.00
2022-10-07T20:21:36.955Z,11.00
2022-10-07T20:24:05.203Z,10.90
2022-10-07T20:26:34.685Z,10.90
2022-10-07T20:29:03.238Z,10.90
2022-10-07T20:31:33.756Z,10.80
2022-10-07T20:34:01.776Z,10.80
2022-10-07T20:36:34.668Z,10.80
2022-10-07T20:39:25.694Z,10.80
2022-10-07T20:42:12.258Z,10.80
2022-10-07T20:44:39.735Z,10.70
2022-10-07T20:47:08.470Z,10.70
2022-10-07T20:49:37.441Z,10.70
2022-10-07T20:52:07.250Z,10.60
2022-10-07T20:54:34.131Z,10.60
2022-10-07T20:57:01.039Z,10.50
2022-10-07T20:59:30.070Z,10.50
2022-10-07T21:01:57.564Z,10.60
2022-10-07T21:04:25.970Z,10.60
2022-10-07T21:06:53.374Z,10.50
2022-10-07T21:09:20.694Z,10.50
2022-10-07T21:11:48.375Z,10.50
2022-10-07T21:14:17.146Z,10.50
2022-10-07T21:16:45.039Z,10.50
2022-10-07T21:19:12.367Z,10.50
2022-10-07T21:21:40.272Z,10.50
2022-10-07T21:24:07.755Z,10.40
2022-10-07T21:26:36.481Z,10.40
2022-10-07T21:29:08.147Z,10.40
2022-10-07T21:31:35.868Z,10.50
2022-10-07T21:34:10.077Z,10.60
2022-10-07T21:36:49.163Z,10.60
2022-10-07T21:39:18.822Z,10.50
2022-10-07T21:41:45.705Z,10.50
2022-10-07T21:44:13.895Z,10.40
2022-10-07T21:46:45.665Z,10.50
2022-10-07T21:49:14.206Z,10.50
2022-10-07T21:51:41.475Z,10.40
2022-10-07T21:54:11.128Z,10.40
2022-10-07T21:56:38.037Z,10.40
2022-10-07T21:59:05.554Z,10.50
2022-10-07T22:01:32.772Z,10.40
2022-10-07T22:04:03.457Z,10.40
2022-10-07T22:06:50.153Z,10.40
2022-10-07T22:09:18.588Z,10.40
2022-10-07T22:11:45.439Z,10.30
2022-10-07T22:14:13.212Z,10.30
2022-10-07T22:16:40.732Z,10.30
2022-10-07T22:19:08.334Z,10.30
2022-10-07T22:21:39.883Z,10.30
2022-10-07T22:24:08.444Z,10.30
2022-10-07T22:26:41.624Z,10.30
2022-10-07T22:29:09.683Z,10.30
2022-10-07T22:31:37.954Z,10.30
2022-10-07T22:34:05.938Z,10.20
2022-10-07T22:36:33.439Z,10.30
2022-10-07T22:39:00.498Z,10.20
2022-10-07T22:41:28.199Z,10.30
2022-10-07T22:43:55.440Z,10.30
2022-10-07T22:46:27.888Z,10.20
2022-10-07T22:48:58.015Z,10.20
2022-10-07T22:51:28.603Z,10.20
2022-10-07T22:53:56.715Z,10.20
2022-10-07T22:56:25.756Z,10.10
2022-10-07T22:59:00.816Z,10.20
2022-10-07T23:01:30.156Z,10.30
2022-10-07T23:04:03.034Z,10.30
2022-10-07T23:06:32.537Z,10.20
2022-10-07T23:09:00.411Z,10.10
2022-10-07T23:11:28.955Z,10.20
2022-10-07T23:13:55.923Z,10.10
2022-10-07T23:16:32.422Z,10.10
2022-10-07T23:18:59.677Z,10.10
2022-10-07T23:21:29.235Z,10.10
2022-10-07T23:24:04.330Z,10.00
2022-10-07T23:26:34.298Z,10.00
2022-10-07T23:29:01.665Z,10.10
2022-10-07T23:31:30.512Z,10.00
2022-10-07T23:33:58.698Z,10.00
2022-10-07T23:36:26.699Z,10.00
2022-10-07T23:38:54.113Z,10.00
2022-10-07T23:41:23.797Z,10.00
2022-10-07T23:43:56.093Z,10.10
2022-10-07T23:46:24.557Z,10.00
2022-10-07T23:48:52.086Z,10.00
2022-10-07T23:51:21.817Z,10.00
2022-10-07T23:53:49.480Z,10.00
2022-10-07T23:56:18.597Z,10.00
2022-10-07T23:58:45.466Z,10.00
